sensor_id;sensor_type;location;lat;lon;timestamp;pressure;altitude;pressure_sealevel;temperature;humidity
50682;BME280;36779;52.168;20.878;2024-02-14T00:02:32;100948.01;;;4.27;75.96
50682;BME280;36779;52.168;20.878;2024-02-14T00:05:05;100951.28;;;4.24;75.98
50682;BME280;36779;52.168;20.878;2024-02-14T00:07:38;100955.41;;;4.21;75.85
50682;BME280;36779;52.168;20.878;2024-02-14T00:10:12;100954.52;;;4.19;75.77
50682;BME280;36779;52.168;20.878;2024-02-14T00:12:46;100959.19;;;4.20;75.89
50682;BME280;36779;52.168;20.878;2024-02-14T00:15:19;100959.47;;;4.19;75.94
50682;BME280;36779;52.168;20.878;2024-02-14T00:18:04;100964.70;;;4.17;75.88
50682;BME280;36779;52.168;20.878;2024-02-14T00:20:41;100966.52;;;4.18;75.94
50682;BME280;36779;52.168;20.878;2024-02-14T00:23:13;100968.23;;;4.19;75.93
50682;BME280;36779;52.168;20.878;2024-02-14T00:25:46;100969.80;;;4.17;75.88
50682;BME280;36779;52.168;20.878;2024-02-14T00:28:19;100969.92;;;4.15;76.00
50682;BME280;36779;52.168;20.878;2024-02-14T00:30:55;100970.94;;;4.13;75.94
50682;BME280;36779;52.168;20.878;2024-02-14T00:33:30;100975.55;;;4.15;76.10
50682;BME280;36779;52.168;20.878;2024-02-14T00:36:06;100974.70;;;4.12;75.95
50682;BME280;36779;52.168;20.878;2024-02-14T00:38:42;100974.19;;;4.09;75.82
50682;BME280;36779;52.168;20.878;2024-02-14T00:41:15;100977.25;;;4.13;75.97
50682;BME280;36779;52.168;20.878;2024-02-14T00:43:47;100976.84;;;4.16;75.97
50682;BME280;36779;52.168;20.878;2024-02-14T00:46:19;100984.05;;;4.22;76.08
50682;BME280;36779;52.168;20.878;2024-02-14T00:48:51;100981.43;;;4.27;76.13
50682;BME280;36779;52.168;20.878;2024-02-14T00:51:28;100983.35;;;4.29;76.23
50682;BME280;36779;52.168;20.878;2024-02-14T00:54:00;100984.74;;;4.32;76.19
50682;BME280;36779;52.168;20.878;2024-02-14T00:56:32;100983.81;;;4.30;76.12
50682;BME280;36779;52.168;20.878;2024-02-14T00:59:05;100980.27;;;4.28;76.16
50682;BME280;36779;52.168;20.878;2024-02-14T01:01:39;100983.53;;;4.21;75.93
50682;BME280;36779;52.168;20.878;2024-02-14T01:04:12;100983.08;;;4.16;76.04
50682;BME280;36779;52.168;20.878;2024-02-14T01:06:45;100983.77;;;4.11;76.03
50682;BME280;36779;52.168;20.878;2024-02-14T01:09:21;100986.20;;;4.09;75.97
50682;BME280;36779;52.168;20.878;2024-02-14T01:11:53;100985.77;;;4.05;76.05
50682;BME280;36779;52.168;20.878;2024-02-14T01:14:26;100991.23;;;4.02;75.99
50682;BME280;36779;52.168;20.878;2024-02-14T01:16:59;100990.21;;;3.94;75.76
50682;BME280;36779;52.168;20.878;2024-02-14T01:19:31;100987.09;;;3.83;75.63
50682;BME280;36779;52.168;20.878;2024-02-14T01:22:09;100993.50;;;3.66;75.33
50682;BME280;36779;52.168;20.878;2024-02-14T01:24:41;100995.33;;;3.49;75.13
50682;BME280;36779;52.168;20.878;2024-02-14T01:27:14;100996.25;;;3.32;75.14
50682;BME280;36779;52.168;20.878;2024-02-14T01:29:47;100994.71;;;3.24;75.40
50682;BME280;36779;52.168;20.878;2024-02-14T01:32:20;100992.67;;;3.25;75.59
50682;BME280;36779;52.168;20.878;2024-02-14T01:34:52;100990.31;;;3.13;75.19
50682;BME280;36779;52.168;20.878;2024-02-14T01:37:25;100990.34;;;2.99;75.43
50682;BME280;36779;52.168;20.878;2024-02-14T01:40:00;100988.48;;;2.98;75.72
50682;BME280;36779;52.168;20.878;2024-02-14T01:42:34;100996.67;;;2.96;75.93
50682;BME280;36779;52.168;20.878;2024-02-14T01:45:17;100993.42;;;2.92;75.83
50682;BME280;36779;52.168;20.878;2024-02-14T01:47:49;100993.86;;;2.88;75.82
50682;BME280;36779;52.168;20.878;2024-02-14T01:50:23;100995.73;;;2.86;75.99
50682;BME280;36779;52.168;20.878;2024-02-14T01:53:09;100997.11;;;2.84;75.84
50682;BME280;36779;52.168;20.878;2024-02-14T01:55:42;100998.18;;;2.78;75.61
50682;BME280;36779;52.168;20.878;2024-02-14T01:58:16;100997.71;;;2.63;75.28
50682;BME280;36779;52.168;20.878;2024-02-14T02:00:49;100995.56;;;2.55;75.46
50682;BME280;36779;52.168;20.878;2024-02-14T02:03:25;100999.61;;;2.55;75.88
50682;BME280;36779;52.168;20.878;2024-02-14T02:06:00;101001.86;;;2.55;75.97
50682;BME280;36779;52.168;20.878;2024-02-14T02:08:33;101005.95;;;2.52;75.98
50682;BME280;36779;52.168;20.878;2024-02-14T02:11:06;101005.88;;;2.47;75.92
50682;BME280;36779;52.168;20.878;2024-02-14T02:13:40;101003.15;;;2.40;75.94
50682;BME280;36779;52.168;20.878;2024-02-14T02:16:12;101005.52;;;2.30;75.75
50682;BME280;36779;52.168;20.878;2024-02-14T02:18:47;101006.23;;;2.19;75.70
50682;BME280;36779;52.168;20.878;2024-02-14T02:21:21;101005.65;;;2.11;75.77
50682;BME280;36779;52.168;20.878;2024-02-14T02:23:57;101006.48;;;2.06;75.72
50682;BME280;36779;52.168;20.878;2024-02-14T02:26:29;101006.48;;;2.00;75.59
50682;BME280;36779;52.168;20.878;2024-02-14T02:29:01;101009.79;;;1.98;75.59
50682;BME280;36779;52.168;20.878;2024-02-14T02:31:34;101013.27;;;1.95;75.65
50682;BME280;36779;52.168;20.878;2024-02-14T02:34:06;101006.27;;;1.80;75.17
50682;BME280;36779;52.168;20.878;2024-02-14T02:36:43;101012.70;;;1.57;74.98
50682;BME280;36779;52.168;20.878;2024-02-14T02:39:19;101010.15;;;1.38;74.94
50682;BME280;36779;52.168;20.878;2024-02-14T02:41:51;101004.10;;;1.27;75.13
50682;BME280;36779;52.168;20.878;2024-02-14T02:44:26;101006.44;;;1.23;75.29
50682;BME280;36779;52.168;20.878;2024-02-14T02:47:00;101013.60;;;1.23;75.51
50682;BME280;36779;52.168;20.878;2024-02-14T02:49:32;101013.56;;;1.24;75.67
50682;BME280;36779;52.168;20.878;2024-02-14T02:52:08;101014.40;;;1.18;75.51
50682;BME280;36779;52.168;20.878;2024-02-14T02:54:41;101019.50;;;1.11;75.43
50682;BME280;36779;52.168;20.878;2024-02-14T02:57:20;101021.45;;;1.14;75.56
50682;BME280;36779;52.168;20.878;2024-02-14T02:59:53;101017.71;;;1.18;75.81
50682;BME280;36779;52.168;20.878;2024-02-14T03:02:28;101021.23;;;1.22;75.87
50682;BME280;36779;52.168;20.878;2024-02-14T03:05:00;101024.66;;;1.26;76.09
50682;BME280;36779;52.168;20.878;2024-02-14T03:07:35;101025.66;;;1.24;75.94
50682;BME280;36779;52.168;20.878;2024-02-14T03:10:10;101029.59;;;1.19;75.93
50682;BME280;36779;52.168;20.878;2024-02-14T03:12:50;101036.92;;;1.01;75.33
50682;BME280;36779;52.168;20.878;2024-02-14T03:15:23;101039.44;;;0.77;75.12
50682;BME280;36779;52.168;20.878;2024-02-14T03:17:57;101042.64;;;0.63;75.16
50682;BME280;36779;52.168;20.878;2024-02-14T03:20:32;101046.26;;;0.55;75.40
50682;BME280;36779;52.168;20.878;2024-02-14T03:23:08;101047.34;;;0.54;75.53
50682;BME280;36779;52.168;20.878;2024-02-14T03:25:41;101049.59;;;0.54;75.63
50682;BME280;36779;52.168;20.878;2024-02-14T03:28:13;101050.52;;;0.57;75.75
50682;BME280;36779;52.168;20.878;2024-02-14T03:30:48;101052.77;;;0.60;75.80
50682;BME280;36779;52.168;20.878;2024-02-14T03:33:20;101050.92;;;0.65;75.78
50682;BME280;36779;52.168;20.878;2024-02-14T03:35:53;101051.48;;;0.71;75.90
50682;BME280;36779;52.168;20.878;2024-02-14T03:38:30;101054.86;;;0.77;75.96
50682;BME280;36779;52.168;20.878;2024-02-14T03:41:03;101058.38;;;0.80;75.87
50682;BME280;36779;52.168;20.878;2024-02-14T03:43:35;101059.53;;;0.71;75.64
50682;BME280;36779;52.168;20.878;2024-02-14T03:46:07;101055.10;;;0.69;75.87
50682;BME280;36779;52.168;20.878;2024-02-14T03:48:39;101054.11;;;0.67;75.77
50682;BME280;36779;52.168;20.878;2024-02-14T03:51:13;101056.28;;;0.63;75.70
50682;BME280;36779;52.168;20.878;2024-02-14T03:53:46;101060.58;;;0.61;75.90
50682;BME280;36779;52.168;20.878;2024-02-14T03:56:19;101056.34;;;0.59;75.91
50682;BME280;36779;52.168;20.878;2024-02-14T03:58:51;101055.59;;;0.50;75.62
50682;BME280;36779;52.168;20.878;2024-02-14T04:01:23;101056.87;;;0.42;75.71
50682;BME280;36779;52.168;20.878;2024-02-14T04:03:56;101060.63;;;0.37;75.67
50682;BME280;36779;52.168;20.878;2024-02-14T04:06:33;101059.34;;;0.32;75.55
50682;BME280;36779;52.168;20.878;2024-02-14T04:09:06;101058.83;;;0.18;75.20
50682;BME280;36779;52.168;20.878;2024-02-14T04:11:41;101060.93;;;0.11;75.38
50682;BME280;36779;52.168;20.878;2024-02-14T04:14:14;101063.82;;;0.16;75.63
50682;BME280;36779;52.168;20.878;2024-02-14T04:16:47;101067.02;;;0.19;75.52
50682;BME280;36779;52.168;20.878;2024-02-14T04:19:19;101067.60;;;0.11;75.33
50682;BME280;36779;52.168;20.878;2024-02-14T04:21:52;101067.70;;;0.09;75.50
50682;BME280;36779;52.168;20.878;2024-02-14T04:24:26;101066.07;;;0.13;75.67
50682;BME280;36779;52.168;20.878;2024-02-14T04:26:59;101068.30;;;0.14;75.83
50682;BME280;36779;52.168;20.878;2024-02-14T04:29:33;101069.17;;;0.18;75.94
50682;BME280;36779;52.168;20.878;2024-02-14T04:32:07;101068.20;;;0.19;75.98
50682;BME280;36779;52.168;20.878;2024-02-14T04:34:40;101070.98;;;0.16;75.88
50682;BME280;36779;52.168;20.878;2024-02-14T04:37:15;101071.90;;;0.12;75.87
50682;BME280;36779;52.168;20.878;2024-02-14T04:39:49;101074.81;;;0.10;75.87
50682;BME280;36779;52.168;20.878;2024-02-14T04:42:22;101072.95;;;0.08;75.92
50682;BME280;36779;52.168;20.878;2024-02-14T04:44:55;101076.44;;;0.09;75.97
50682;BME280;36779;52.168;20.878;2024-02-14T04:50:33;101080.82;;;0.12;76.02
50682;BME280;36779;52.168;20.878;2024-02-14T04:53:24;101080.25;;;0.16;76.15
50682;BME280;36779;52.168;20.878;2024-02-14T04:56:00;101080.66;;;0.15;75.83
50682;BME280;36779;52.168;20.878;2024-02-14T04:58:37;101085.17;;;0.05;75.52
50682;BME280;36779;52.168;20.878;2024-02-14T05:01:13;101088.82;;;-0.08;75.42
50682;BME280;36779;52.168;20.878;2024-02-14T05:04:00;101087.94;;;-0.08;75.71
50682;BME280;36779;52.168;20.878;2024-02-14T05:06:35;101091.63;;;-0.08;75.71
50682;BME280;36779;52.168;20.878;2024-02-14T05:09:13;101090.35;;;-0.14;75.67
50682;BME280;36779;52.168;20.878;2024-02-14T05:11:48;101094.01;;;-0.21;75.60
50682;BME280;36779;52.168;20.878;2024-02-14T05:14:22;101098.17;;;-0.28;75.56
50682;BME280;36779;52.168;20.878;2024-02-14T05:17:04;101098.80;;;-0.33;75.51
50682;BME280;36779;52.168;20.878;2024-02-14T05:19:39;101105.16;;;-0.31;75.69
50682;BME280;36779;52.168;20.878;2024-02-14T05:22:13;101104.52;;;-0.25;75.87
50682;BME280;36779;52.168;20.878;2024-02-14T05:24:46;101101.77;;;-0.19;75.94
50682;BME280;36779;52.168;20.878;2024-02-14T05:27:18;101101.29;;;-0.13;76.01
50682;BME280;36779;52.168;20.878;2024-02-14T05:29:54;101102.97;;;-0.08;75.80
50682;BME280;36779;52.168;20.878;2024-02-14T05:32:27;101101.11;;;-0.13;75.69
50682;BME280;36779;52.168;20.878;2024-02-14T05:35:07;101104.25;;;-0.16;75.73
50682;BME280;36779;52.168;20.878;2024-02-14T05:37:47;101109.00;;;-0.20;75.71
50682;BME280;36779;52.168;20.878;2024-02-14T05:40:24;101110.88;;;-0.16;75.98
50682;BME280;36779;52.168;20.878;2024-02-14T05:42:57;101111.60;;;-0.16;75.89
50682;BME280;36779;52.168;20.878;2024-02-14T05:45:31;101111.80;;;-0.28;75.67
50682;BME280;36779;52.168;20.878;2024-02-14T05:48:09;101115.60;;;-0.34;75.66
50682;BME280;36779;52.168;20.878;2024-02-14T05:50:51;101115.05;;;-0.33;75.94
50682;BME280;36779;52.168;20.878;2024-02-14T05:53:26;101114.73;;;-0.30;75.95
50682;BME280;36779;52.168;20.878;2024-02-14T05:56:00;101114.13;;;-0.25;76.04
50682;BME280;36779;52.168;20.878;2024-02-14T05:58:32;101113.45;;;-0.26;75.83
50682;BME280;36779;52.168;20.878;2024-02-14T06:01:07;101117.89;;;-0.31;75.67
50682;BME280;36779;52.168;20.878;2024-02-14T06:03:40;101118.63;;;-0.38;75.42
50682;BME280;36779;52.168;20.878;2024-02-14T06:06:13;101123.37;;;-0.46;75.37
50682;BME280;36779;52.168;20.878;2024-02-14T06:08:48;101126.10;;;-0.45;75.69
50682;BME280;36779;52.168;20.878;2024-02-14T06:11:26;101127.59;;;-0.36;75.88
50682;BME280;36779;52.168;20.878;2024-02-14T06:14:01;101130.46;;;-0.35;75.75
50682;BME280;36779;52.168;20.878;2024-02-14T06:16:44;101133.48;;;-0.39;75.67
50682;BME280;36779;52.168;20.878;2024-02-14T06:19:21;101136.50;;;-0.36;75.96
50682;BME280;36779;52.168;20.878;2024-02-14T06:21:53;101142.25;;;-0.29;76.06
50682;BME280;36779;52.168;20.878;2024-02-14T06:24:26;101140.88;;;-0.22;76.20
50682;BME280;36779;52.168;20.878;2024-02-14T06:26:58;101142.32;;;-0.16;76.29
50682;BME280;36779;52.168;20.878;2024-02-14T06:29:31;101141.96;;;-0.09;76.22
50682;BME280;36779;52.168;20.878;2024-02-14T06:32:08;101142.12;;;0.02;76.30
50682;BME280;36779;52.168;20.878;2024-02-14T06:34:40;101136.70;;;0.16;76.32
50682;BME280;36779;52.168;20.878;2024-02-14T06:37:13;101134.52;;;0.29;76.51
50682;BME280;36779;52.168;20.878;2024-02-14T06:39:45;101133.91;;;0.40;76.57
50682;BME280;36779;52.168;20.878;2024-02-14T06:42:19;101134.25;;;0.51;76.88
50682;BME280;36779;52.168;20.878;2024-02-14T06:44:51;101136.11;;;0.59;76.82
50682;BME280;36779;52.168;20.878;2024-02-14T06:47:31;101138.33;;;0.63;76.87
50682;BME280;36779;52.168;20.878;2024-02-14T06:50:03;101137.02;;;0.64;76.81
50682;BME280;36779;52.168;20.878;2024-02-14T06:52:36;101140.70;;;0.68;76.82
50682;BME280;36779;52.168;20.878;2024-02-14T06:55:12;101142.16;;;0.70;76.56
50682;BME280;36779;52.168;20.878;2024-02-14T06:57:45;101144.48;;;0.73;76.60
50682;BME280;36779;52.168;20.878;2024-02-14T07:00:19;101147.50;;;0.82;76.57
50682;BME280;36779;52.168;20.878;2024-02-14T07:02:51;101149.10;;;0.88;76.41
50682;BME280;36779;52.168;20.878;2024-02-14T07:05:25;101151.73;;;0.88;76.30
50682;BME280;36779;52.168;20.878;2024-02-14T07:07:57;101148.00;;;0.99;76.69
50682;BME280;36779;52.168;20.878;2024-02-14T07:10:34;101151.86;;;1.08;76.83
50682;BME280;36779;52.168;20.878;2024-02-14T07:13:08;101149.77;;;1.14;76.88
50682;BME280;36779;52.168;20.878;2024-02-14T07:15:40;101151.20;;;1.17;76.84
50682;BME280;36779;52.168;20.878;2024-02-14T07:18:13;101147.90;;;1.20;76.87
50682;BME280;36779;52.168;20.878;2024-02-14T07:20:47;101146.55;;;1.22;76.80
50682;BME280;36779;52.168;20.878;2024-02-14T07:23:20;101148.64;;;1.26;76.64
50682;BME280;36779;52.168;20.878;2024-02-14T07:25:52;101149.45;;;1.30;76.69
50682;BME280;36779;52.168;20.878;2024-02-14T07:28:27;101152.75;;;1.36;76.71
50682;BME280;36779;52.168;20.878;2024-02-14T07:31:00;101153.14;;;1.46;76.74
50682;BME280;36779;52.168;20.878;2024-02-14T07:33:33;101154.42;;;1.54;76.79
50682;BME280;36779;52.168;20.878;2024-02-14T07:36:07;101157.05;;;1.63;76.85
50682;BME280;36779;52.168;20.878;2024-02-14T07:38:40;101159.46;;;1.71;76.93
50682;BME280;36779;52.168;20.878;2024-02-14T07:41:14;101161.73;;;1.77;76.89
50682;BME280;36779;52.168;20.878;2024-02-14T07:43:52;101164.72;;;1.83;76.95
50682;BME280;36779;52.168;20.878;2024-02-14T07:46:26;101162.38;;;1.90;76.92
50682;BME280;36779;52.168;20.878;2024-02-14T07:49:11;101160.48;;;1.99;76.94
50682;BME280;36779;52.168;20.878;2024-02-14T07:51:43;101159.05;;;2.08;76.96
50682;BME280;36779;52.168;20.878;2024-02-14T07:54:16;101156.67;;;2.20;76.98
50682;BME280;36779;52.168;20.878;2024-02-14T07:56:50;101156.83;;;2.31;76.98
50682;BME280;36779;52.168;20.878;2024-02-14T07:59:22;101155.36;;;2.42;77.03
50682;BME280;36779;52.168;20.878;2024-02-14T08:01:59;101153.60;;;2.50;77.14
50682;BME280;36779;52.168;20.878;2024-02-14T08:04:32;101146.77;;;2.59;77.03
50682;BME280;36779;52.168;20.878;2024-02-14T08:07:05;101151.21;;;2.67;77.22
50682;BME280;36779;52.168;20.878;2024-02-14T08:09:38;101154.89;;;2.76;77.25
50682;BME280;36779;52.168;20.878;2024-02-14T08:12:11;101155.14;;;2.86;77.29
50682;BME280;36779;52.168;20.878;2024-02-14T08:14:44;101155.50;;;2.97;77.24
50682;BME280;36779;52.168;20.878;2024-02-14T08:17:16;101156.00;;;3.09;77.23
50682;BME280;36779;52.168;20.878;2024-02-14T08:19:48;101153.23;;;3.22;77.30
50682;BME280;36779;52.168;20.878;2024-02-14T08:22:21;101151.91;;;3.35;77.34
50682;BME280;36779;52.168;20.878;2024-02-14T08:24:53;101154.55;;;3.46;77.34
50682;BME280;36779;52.168;20.878;2024-02-14T08:27:26;101152.08;;;3.58;77.42
50682;BME280;36779;52.168;20.878;2024-02-14T08:30:00;101151.09;;;3.67;77.38
50682;BME280;36779;52.168;20.878;2024-02-14T08:32:34;101149.16;;;3.78;77.42
50682;BME280;36779;52.168;20.878;2024-02-14T08:35:08;101148.60;;;3.89;77.30
50682;BME280;36779;52.168;20.878;2024-02-14T08:37:45;101152.64;;;4.00;77.31
50682;BME280;36779;52.168;20.878;2024-02-14T08:40:17;101149.88;;;4.10;77.32
50682;BME280;36779;52.168;20.878;2024-02-14T08:42:49;101151.31;;;4.20;77.42
50682;BME280;36779;52.168;20.878;2024-02-14T08:45:21;101149.73;;;4.49;77.83
50682;BME280;36779;52.168;20.878;2024-02-14T08:47:54;101148.88;;;4.74;77.80
50682;BME280;36779;52.168;20.878;2024-02-14T08:50:26;101151.07;;;4.83;77.56
50682;BME280;36779;52.168;20.878;2024-02-14T08:53:01;101153.14;;;4.91;77.49
50682;BME280;36779;52.168;20.878;2024-02-14T08:55:39;101152.52;;;5.03;77.60
50682;BME280;36779;52.168;20.878;2024-02-14T08:58:12;101155.07;;;5.19;77.69
50682;BME280;36779;52.168;20.878;2024-02-14T09:00:45;101153.45;;;5.39;77.64
50682;BME280;36779;52.168;20.878;2024-02-14T09:03:27;101160.67;;;5.54;77.56
50682;BME280;36779;52.168;20.878;2024-02-14T09:06:07;101158.99;;;5.62;77.32
50682;BME280;36779;52.168;20.878;2024-02-14T09:08:44;101158.04;;;5.68;77.36
50682;BME280;36779;52.168;20.878;2024-02-14T09:11:18;101156.73;;;5.79;77.36
50682;BME280;36779;52.168;20.878;2024-02-14T09:13:53;101156.54;;;5.89;77.26
50682;BME280;36779;52.168;20.878;2024-02-14T09:16:30;101154.28;;;5.98;77.29
50682;BME280;36779;52.168;20.878;2024-02-14T09:19:10;101149.63;;;6.09;77.21
50682;BME280;36779;52.168;20.878;2024-02-14T09:21:44;101142.31;;;6.24;77.47
50682;BME280;36779;52.168;20.878;2024-02-14T09:24:16;101141.96;;;6.40;77.45
50682;BME280;36779;52.168;20.878;2024-02-14T09:26:49;101140.52;;;6.52;77.35
50682;BME280;36779;52.168;20.878;2024-02-14T09:29:22;101135.59;;;6.61;77.41
50682;BME280;36779;52.168;20.878;2024-02-14T09:31:54;101132.41;;;6.68;77.46
50682;BME280;36779;52.168;20.878;2024-02-14T09:34:26;101134.77;;;6.76;77.48
50682;BME280;36779;52.168;20.878;2024-02-14T09:36:59;101136.27;;;6.84;77.50
50682;BME280;36779;52.168;20.878;2024-02-14T09:39:32;101135.48;;;6.90;77.33
50682;BME280;36779;52.168;20.878;2024-02-14T09:42:11;101135.73;;;6.96;77.33
50682;BME280;36779;52.168;20.878;2024-02-14T09:44:46;101137.95;;;7.01;77.22
50682;BME280;36779;52.168;20.878;2024-02-14T09:47:20;101136.65;;;7.06;77.30
50682;BME280;36779;52.168;20.878;2024-02-14T09:49:53;101139.38;;;7.23;77.20
50682;BME280;36779;52.168;20.878;2024-02-14T09:52:26;101136.16;;;7.50;77.27
50682;BME280;36779;52.168;20.878;2024-02-14T09:54:58;101136.81;;;7.88;77.22
50682;BME280;36779;52.168;20.878;2024-02-14T09:57:34;101132.36;;;8.20;77.04
50682;BME280;36779;52.168;20.878;2024-02-14T10:00:08;101133.75;;;8.39;76.63
50682;BME280;36779;52.168;20.878;2024-02-14T10:02:41;101131.60;;;8.57;76.70
50682;BME280;36779;52.168;20.878;2024-02-14T10:05:14;101128.70;;;8.76;76.82
50682;BME280;36779;52.168;20.878;2024-02-14T10:07:46;101128.89;;;9.04;77.40
50682;BME280;36779;52.168;20.878;2024-02-14T10:10:18;101131.33;;;9.53;77.72
50682;BME280;36779;52.168;20.878;2024-02-14T10:12:53;101131.16;;;9.98;77.63
50682;BME280;36779;52.168;20.878;2024-02-14T10:15:26;101124.02;;;10.49;77.44
50682;BME280;36779;52.168;20.878;2024-02-14T10:17:59;101119.64;;;10.87;77.08
50682;BME280;36779;52.168;20.878;2024-02-14T10:20:32;101119.83;;;11.32;77.03
50682;BME280;36779;52.168;20.878;2024-02-14T10:23:10;101120.58;;;11.75;76.86
50682;BME280;36779;52.168;20.878;2024-02-14T10:25:42;101120.21;;;12.02;76.04
50682;BME280;36779;52.168;20.878;2024-02-14T10:28:16;101116.59;;;12.29;75.95
50682;BME280;36779;52.168;20.878;2024-02-14T10:30:49;101113.59;;;12.54;75.84
50682;BME280;36779;52.168;20.878;2024-02-14T10:33:21;101110.76;;;12.84;76.03
50682;BME280;36779;52.168;20.878;2024-02-14T10:35:58;101114.60;;;13.11;75.78
50682;BME280;36779;52.168;20.878;2024-02-14T10:38:36;101109.31;;;13.22;75.46
50682;BME280;36779;52.168;20.878;2024-02-14T10:41:10;101106.91;;;13.21;74.97
50682;BME280;36779;52.168;20.878;2024-02-14T10:43:44;101104.27;;;13.17;74.87
50682;BME280;36779;52.168;20.878;2024-02-14T10:46:21;101103.67;;;13.13;75.03
50682;BME280;36779;52.168;20.878;2024-02-14T10:49:01;101098.65;;;13.25;75.19
50682;BME280;36779;52.168;20.878;2024-02-14T10:51:37;101094.28;;;13.38;75.07
50682;BME280;36779;52.168;20.878;2024-02-14T10:54:13;101094.66;;;13.39;74.94
50682;BME280;36779;52.168;20.878;2024-02-14T10:56:51;101092.19;;;13.43;75.10
50682;BME280;36779;52.168;20.878;2024-02-14T10:59:27;101090.31;;;13.35;74.62
50682;BME280;36779;52.168;20.878;2024-02-14T11:02:04;101094.16;;;13.24;74.50
50682;BME280;36779;52.168;20.878;2024-02-14T11:04:37;101091.69;;;13.12;74.68
50682;BME280;36779;52.168;20.878;2024-02-14T11:07:11;101088.63;;;13.02;74.58
50682;BME280;36779;52.168;20.878;2024-02-14T11:09:46;101086.14;;;12.89;74.74
50682;BME280;36779;52.168;20.878;2024-02-14T11:12:18;101084.92;;;12.86;74.72
50682;BME280;36779;52.168;20.878;2024-02-14T11:14:58;101081.01;;;12.81;74.74
50682;BME280;36779;52.168;20.878;2024-02-14T11:17:33;101081.48;;;12.74;74.64
50682;BME280;36779;52.168;20.878;2024-02-14T11:20:16;101078.79;;;12.61;74.56
50682;BME280;36779;52.168;20.878;2024-02-14T11:22:54;101079.37;;;12.48;74.52
50682;BME280;36779;52.168;20.878;2024-02-14T11:25:31;101081.38;;;12.35;74.13
50682;BME280;36779;52.168;20.878;2024-02-14T11:28:16;101077.66;;;12.29;74.32
50682;BME280;36779;52.168;20.878;2024-02-14T11:30:51;101081.09;;;12.23;74.31
50682;BME280;36779;52.168;20.878;2024-02-14T11:33:26;101077.06;;;12.11;73.87
50682;BME280;36779;52.168;20.878;2024-02-14T11:35:58;101077.40;;;11.99;73.75
50682;BME280;36779;52.168;20.878;2024-02-14T11:38:35;101074.75;;;11.90;73.97
50682;BME280;36779;52.168;20.878;2024-02-14T11:41:11;101071.42;;;11.84;73.86
50682;BME280;36779;52.168;20.878;2024-02-14T11:43:53;101068.48;;;11.80;73.94
50682;BME280;36779;52.168;20.878;2024-02-14T11:46:25;101072.35;;;11.71;73.77
50682;BME280;36779;52.168;20.878;2024-02-14T11:49:25;101070.48;;;11.61;73.70
50682;BME280;36779;52.168;20.878;2024-02-14T11:51:58;101070.53;;;11.50;73.22
50682;BME280;36779;52.168;20.878;2024-02-14T11:54:30;101071.29;;;11.35;73.23
50682;BME280;36779;52.168;20.878;2024-02-14T11:57:04;101069.00;;;11.25;73.37
50682;BME280;36779;52.168;20.878;2024-02-14T11:59:42;101064.27;;;11.16;73.07
50682;BME280;36779;52.168;20.878;2024-02-14T12:02:19;101062.29;;;11.03;73.00
50682;BME280;36779;52.168;20.878;2024-02-14T12:04:51;101062.18;;;10.90;73.03
50682;BME280;36779;52.168;20.878;2024-02-14T12:07:26;101058.80;;;10.78;72.89
50682;BME280;36779;52.168;20.878;2024-02-14T12:09:59;101059.83;;;10.70;73.03
50682;BME280;36779;52.168;20.878;2024-02-14T12:12:31;101060.93;;;10.62;72.90
50682;BME280;36779;52.168;20.878;2024-02-14T12:15:08;101060.63;;;10.52;72.83
50682;BME280;36779;52.168;20.878;2024-02-14T12:17:42;101059.21;;;10.48;72.97
50682;BME280;36779;52.168;20.878;2024-02-14T12:20:15;101059.35;;;10.37;72.72
50682;BME280;36779;52.168;20.878;2024-02-14T12:22:51;101058.08;;;10.30;72.63
50682;BME280;36779;52.168;20.878;2024-02-14T12:25:24;101055.27;;;10.26;72.73
50682;BME280;36779;52.168;20.878;2024-02-14T12:27:58;101053.30;;;10.20;72.83
50682;BME280;36779;52.168;20.878;2024-02-14T12:30:44;101056.58;;;10.13;72.67
50682;BME280;36779;52.168;20.878;2024-02-14T12:33:22;101057.67;;;10.03;72.70
50682;BME280;36779;52.168;20.878;2024-02-14T12:35:57;101059.58;;;9.98;72.72
50682;BME280;36779;52.168;20.878;2024-02-14T12:38:30;101057.19;;;9.82;72.35
50682;BME280;36779;52.168;20.878;2024-02-14T12:41:08;101052.73;;;9.69;72.32
50682;BME280;36779;52.168;20.878;2024-02-14T12:43:42;101051.10;;;9.57;72.31
50682;BME280;36779;52.168;20.878;2024-02-14T12:46:15;101055.30;;;9.52;72.39
50682;BME280;36779;52.168;20.878;2024-02-14T12:48:53;101054.77;;;9.50;72.38
50682;BME280;36779;52.168;20.878;2024-02-14T12:51:29;101060.27;;;9.50;72.49
50682;BME280;36779;52.168;20.878;2024-02-14T12:54:05;101057.10;;;9.48;72.37
50682;BME280;36779;52.168;20.878;2024-02-14T12:56:49;101054.26;;;9.42;72.24
50682;BME280;36779;52.168;20.878;2024-02-14T12:59:22;101057.22;;;9.37;72.24
50682;BME280;36779;52.168;20.878;2024-02-14T13:01:55;101052.05;;;9.31;72.26
50682;BME280;36779;52.168;20.878;2024-02-14T13:04:29;101054.25;;;9.28;72.16
50682;BME280;36779;52.168;20.878;2024-02-14T13:07:08;101052.64;;;9.20;72.04
50682;BME280;36779;52.168;20.878;2024-02-14T13:09:44;101054.01;;;9.13;72.11
50682;BME280;36779;52.168;20.878;2024-02-14T13:12:17;101056.65;;;9.07;72.09
50682;BME280;36779;52.168;20.878;2024-02-14T13:14:50;101054.62;;;9.00;72.03
50682;BME280;36779;52.168;20.878;2024-02-14T13:17:26;101050.23;;;8.94;71.96
50682;BME280;36779;52.168;20.878;2024-02-14T13:20:06;101051.15;;;8.89;71.82
50682;BME280;36779;52.168;20.878;2024-02-14T13:22:40;101048.86;;;8.85;71.88
50682;BME280;36779;52.168;20.878;2024-02-14T13:25:13;101049.26;;;8.81;71.86
50682;BME280;36779;52.168;20.878;2024-02-14T13:27:47;101051.04;;;8.75;71.91
50682;BME280;36779;52.168;20.878;2024-02-14T13:30:20;101052.10;;;8.70;71.79